sensor_id;sensor_type;location;lat;lon;timestamp;P1;durP1;ratioP1;P2;durP2;ratioP2
19675;SDS011;39539;52.202;9.876;2023-02-28T00:00:15;5.03;;;4.10;;
19675;SDS011;39539;52.202;9.876;2023-02-28T00:02:41;6.00;;;4.55;;
19675;SDS011;39539;52.202;9.876;2023-02-28T00:05:08;4.97;;;4.47;;
19675;SDS011;39539;52.202;9.876;2023-02-28T00:07:35;6.35;;;4.63;;
19675;SDS011;39539;52.202;9.876;2023-02-28T00:10:01;5.28;;;4.65;;
19675;SDS011;39539;52.202;9.876;2023-02-28T00:12:27;4.90;;;4.40;;
19675;SDS011;39539;52.202;9.876;2023-02-28T00:14:52;4.40;;;4.00;;
19675;SDS011;39539;52.202;9.876;2023-02-28T00:17:18;4.53;;;4.13;;
19675;SDS011;39539;52.202;9.876;2023-02-28T00:19:46;5.82;;;3.80;;
19675;SDS011;39539;52.202;9.876;2023-02-28T00:22:13;4.55;;;4.00;;
19675;SDS011;39539;52.202;9.876;2023-02-28T00:24:38;4.70;;;4.20;;
19675;SDS011;39539;52.202;9.876;2023-02-28T00:27:03;4.18;;;3.83;;
19675;SDS011;39539;52.202;9.876;2023-02-28T00:29:30;4.18;;;3.88;;
19675;SDS011;39539;52.202;9.876;2023-02-28T00:31:56;4.90;;;4.22;;
19675;SDS011;39539;52.202;9.876;2023-02-28T00:34:21;4.35;;;3.95;;
19675;SDS011;39539;52.202;9.876;2023-02-28T00:36:47;4.13;;;3.83;;
19675;SDS011;39539;52.202;9.876;2023-02-28T00:39:15;3.97;;;3.60;;
19675;SDS011;39539;52.202;9.876;2023-02-28T00:41:40;4.65;;;4.03;;
19675;SDS011;39539;52.202;9.876;2023-02-28T00:44:06;4.25;;;3.95;;
19675;SDS011;39539;52.202;9.876;2023-02-28T00:46:33;4.97;;;3.83;;
19675;SDS011;39539;52.202;9.876;2023-02-28T00:48:58;8.73;;;4.60;;
19675;SDS011;39539;52.202;9.876;2023-02-28T00:51:23;4.32;;;3.92;;
19675;SDS011;39539;52.202;9.876;2023-02-28T00:53:49;3.97;;;3.67;;
19675;SDS011;39539;52.202;9.876;2023-02-28T00:56:14;5.37;;;4.87;;
19675;SDS011;39539;52.202;9.876;2023-02-28T00:58:39;5.50;;;5.00;;
19675;SDS011;39539;52.202;9.876;2023-02-28T01:01:05;5.18;;;4.60;;
19675;SDS011;39539;52.202;9.876;2023-02-28T01:03:31;5.88;;;5.25;;
19675;SDS011;39539;52.202;9.876;2023-02-28T01:05:56;5.70;;;5.10;;
19675;SDS011;39539;52.202;9.876;2023-02-28T01:08:22;7.03;;;5.05;;
19675;SDS011;39539;52.202;9.876;2023-02-28T01:10:48;5.15;;;4.55;;
19675;SDS011;39539;52.202;9.876;2023-02-28T01:13:15;5.35;;;4.50;;
19675;SDS011;39539;52.202;9.876;2023-02-28T01:15:42;5.55;;;5.05;;
19675;SDS011;39539;52.202;9.876;2023-02-28T01:18:12;5.60;;;5.05;;
19675;SDS011;39539;52.202;9.876;2023-02-28T01:20:37;6.32;;;5.03;;
19675;SDS011;39539;52.202;9.876;2023-02-28T01:23:03;6.85;;;6.20;;
19675;SDS011;39539;52.202;9.876;2023-02-28T01:25:28;6.90;;;5.72;;
19675;SDS011;39539;52.202;9.876;2023-02-28T01:27:54;6.35;;;5.72;;
19675;SDS011;39539;52.202;9.876;2023-02-28T01:30:20;6.20;;;5.40;;
19675;SDS011;39539;52.202;9.876;2023-02-28T01:32:45;6.43;;;5.60;;
19675;SDS011;39539;52.202;9.876;2023-02-28T01:35:10;6.30;;;5.70;;
19675;SDS011;39539;52.202;9.876;2023-02-28T01:37:36;5.10;;;4.60;;
19675;SDS011;39539;52.202;9.876;2023-02-28T01:40:03;5.85;;;5.20;;
19675;SDS011;39539;52.202;9.876;2023-02-28T01:42:28;4.72;;;4.15;;
19675;SDS011;39539;52.202;9.876;2023-02-28T01:47:43;4.38;;;3.95;;
19675;SDS011;39539;52.202;9.876;2023-02-28T01:50:12;4.57;;;4.18;;
19675;SDS011;39539;52.202;9.876;2023-02-28T01:52:41;4.82;;;3.75;;
19675;SDS011;39539;52.202;9.876;2023-02-28T01:55:10;6.15;;;4.30;;
19675;SDS011;39539;52.202;9.876;2023-02-28T01:57:40;5.35;;;4.85;;
19675;SDS011;39539;52.202;9.876;2023-02-28T02:00:12;5.35;;;4.60;;
19675;SDS011;39539;52.202;9.876;2023-02-28T02:02:44;5.68;;;4.25;;
19675;SDS011;39539;52.202;9.876;2023-02-28T02:05:14;4.07;;;3.70;;
19675;SDS011;39539;52.202;9.876;2023-02-28T02:07:43;5.05;;;4.28;;
19675;SDS011;39539;52.202;9.876;2023-02-28T02:15:55;5.85;;;4.63;;
19675;SDS011;39539;52.202;9.876;2023-02-28T02:18:41;5.80;;;4.47;;
19675;SDS011;39539;52.202;9.876;2023-02-28T02:27:03;7.20;;;6.35;;
19675;SDS011;39539;52.202;9.876;2023-02-28T02:29:39;5.45;;;5.05;;
19675;SDS011;39539;52.202;9.876;2023-02-28T02:34:37;7.68;;;6.78;;
19675;SDS011;39539;52.202;9.876;2023-02-28T02:37:25;6.60;;;6.00;;
19675;SDS011;39539;52.202;9.876;2023-02-28T02:42:27;7.00;;;6.22;;
19675;SDS011;39539;52.202;9.876;2023-02-28T02:45:22;8.27;;;6.00;;
19675;SDS011;39539;52.202;9.876;2023-02-28T02:47:52;6.20;;;5.65;;
19675;SDS011;39539;52.202;9.876;2023-02-28T02:50:33;6.35;;;5.75;;
19675;SDS011;39539;52.202;9.876;2023-02-28T02:53:03;5.97;;;5.47;;
19675;SDS011;39539;52.202;9.876;2023-02-28T02:55:32;7.25;;;6.30;;
19675;SDS011;39539;52.202;9.876;2023-02-28T02:58:02;7.07;;;6.38;;
19675;SDS011;39539;52.202;9.876;2023-02-28T03:00:31;7.00;;;6.32;;
19675;SDS011;39539;52.202;9.876;2023-02-28T03:03:02;6.30;;;5.80;;
19675;SDS011;39539;52.202;9.876;2023-02-28T03:05:30;6.15;;;5.55;;
19675;SDS011;39539;52.202;9.876;2023-02-28T03:08:06;6.53;;;5.93;;
19675;SDS011;39539;52.202;9.876;2023-02-28T03:10:39;5.68;;;5.15;;
19675;SDS011;39539;52.202;9.876;2023-02-28T03:18:50;7.22;;;5.20;;
19675;SDS011;39539;52.202;9.876;2023-02-28T03:26:57;6.50;;;5.90;;
19675;SDS011;39539;52.202;9.876;2023-02-28T03:29:32;6.57;;;6.00;;
19675;SDS011;39539;52.202;9.876;2023-02-28T03:32:08;5.43;;;4.97;;
19675;SDS011;39539;52.202;9.876;2023-02-28T03:34:39;6.70;;;5.72;;
19675;SDS011;39539;52.202;9.876;2023-02-28T03:37:13;5.28;;;4.80;;
19675;SDS011;39539;52.202;9.876;2023-02-28T03:39:45;5.50;;;5.05;;
19675;SDS011;39539;52.202;9.876;2023-02-28T03:42:15;6.22;;;5.70;;
19675;SDS011;39539;52.202;9.876;2023-02-28T03:44:46;7.28;;;5.30;;
19675;SDS011;39539;52.202;9.876;2023-02-28T03:47:27;5.70;;;5.20;;
19675;SDS011;39539;52.202;9.876;2023-02-28T03:49:59;5.75;;;5.20;;
19675;SDS011;39539;52.202;9.876;2023-02-28T03:52:33;5.43;;;4.93;;
19675;SDS011;39539;52.202;9.876;2023-02-28T03:55:03;6.88;;;5.90;;
19675;SDS011;39539;52.202;9.876;2023-02-28T03:57:38;6.55;;;4.97;;
19675;SDS011;39539;52.202;9.876;2023-02-28T04:00:10;5.43;;;4.90;;
19675;SDS011;39539;52.202;9.876;2023-02-28T04:02:41;5.80;;;5.30;;
19675;SDS011;39539;52.202;9.876;2023-02-28T04:05:07;6.57;;;5.47;;
19675;SDS011;39539;52.202;9.876;2023-02-28T04:07:33;5.65;;;5.13;;
19675;SDS011;39539;52.202;9.876;2023-02-28T04:09:58;5.50;;;5.00;;
19675;SDS011;39539;52.202;9.876;2023-02-28T04:12:24;5.97;;;4.47;;
19675;SDS011;39539;52.202;9.876;2023-02-28T04:14:50;5.43;;;4.90;;
19675;SDS011;39539;52.202;9.876;2023-02-28T04:17:16;5.25;;;4.80;;
19675;SDS011;39539;52.202;9.876;2023-02-28T04:19:42;5.88;;;4.85;;
19675;SDS011;39539;52.202;9.876;2023-02-28T04:22:08;6.10;;;5.50;;
19675;SDS011;39539;52.202;9.876;2023-02-28T04:24:34;7.93;;;4.97;;
19675;SDS011;39539;52.202;9.876;2023-02-28T04:27:00;5.63;;;5.13;;
19675;SDS011;39539;52.202;9.876;2023-02-28T04:29:29;7.10;;;5.45;;
19675;SDS011;39539;52.202;9.876;2023-02-28T04:31:59;7.57;;;5.07;;
19675;SDS011;39539;52.202;9.876;2023-02-28T04:34:26;6.18;;;5.28;;
19675;SDS011;39539;52.202;9.876;2023-02-28T04:36:52;5.70;;;5.20;;
19675;SDS011;39539;52.202;9.876;2023-02-28T04:39:20;6.85;;;5.90;;
19675;SDS011;39539;52.202;9.876;2023-02-28T04:41:46;6.78;;;6.05;;
19675;SDS011;39539;52.202;9.876;2023-02-28T04:44:11;6.78;;;6.07;;
19675;SDS011;39539;52.202;9.876;2023-02-28T04:46:37;7.68;;;5.47;;
19675;SDS011;39539;52.202;9.876;2023-02-28T04:49:02;5.72;;;5.13;;
19675;SDS011;39539;52.202;9.876;2023-02-28T04:51:28;6.45;;;5.68;;
19675;SDS011;39539;52.202;9.876;2023-02-28T04:53:53;6.25;;;5.63;;
19675;SDS011;39539;52.202;9.876;2023-02-28T04:56:19;7.03;;;6.32;;
19675;SDS011;39539;52.202;9.876;2023-02-28T04:58:44;5.97;;;5.47;;
19675;SDS011;39539;52.202;9.876;2023-02-28T05:03:46;6.35;;;5.78;;
19675;SDS011;39539;52.202;9.876;2023-02-28T05:06:12;5.95;;;5.22;;
19675;SDS011;39539;52.202;9.876;2023-02-28T05:08:38;5.80;;;5.25;;
19675;SDS011;39539;52.202;9.876;2023-02-28T05:11:05;6.00;;;5.50;;
19675;SDS011;39539;52.202;9.876;2023-02-28T05:13:32;8.25;;;5.80;;
19675;SDS011;39539;52.202;9.876;2023-02-28T05:15:57;6.97;;;5.80;;
19675;SDS011;39539;52.202;9.876;2023-02-28T05:18:22;5.90;;;5.43;;
19675;SDS011;39539;52.202;9.876;2023-02-28T05:20:48;8.35;;;5.68;;
19675;SDS011;39539;52.202;9.876;2023-02-28T05:23:13;5.85;;;5.35;;
19675;SDS011;39539;52.202;9.876;2023-02-28T05:25:40;6.13;;;5.60;;
19675;SDS011;39539;52.202;9.876;2023-02-28T05:28:06;5.55;;;5.05;;
19675;SDS011;39539;52.202;9.876;2023-02-28T05:30:31;5.07;;;4.57;;
19675;SDS011;39539;52.202;9.876;2023-02-28T05:32:57;5.43;;;4.93;;
19675;SDS011;39539;52.202;9.876;2023-02-28T05:35:24;5.40;;;4.95;;
19675;SDS011;39539;52.202;9.876;2023-02-28T05:37:49;6.15;;;5.57;;
19675;SDS011;39539;52.202;9.876;2023-02-28T05:40:15;5.75;;;5.10;;
19675;SDS011;39539;52.202;9.876;2023-02-28T05:42:41;5.80;;;5.30;;
19675;SDS011;39539;52.202;9.876;2023-02-28T05:45:07;8.98;;;5.60;;
19675;SDS011;39539;52.202;9.876;2023-02-28T05:47:33;7.68;;;5.53;;
19675;SDS011;39539;52.202;9.876;2023-02-28T05:49:58;5.75;;;5.15;;
19675;SDS011;39539;52.202;9.876;2023-02-28T05:52:24;8.35;;;4.82;;
19675;SDS011;39539;52.202;9.876;2023-02-28T05:54:50;10.82;;;5.80;;
19675;SDS011;39539;52.202;9.876;2023-02-28T05:57:15;6.38;;;5.85;;
19675;SDS011;39539;52.202;9.876;2023-02-28T05:59:41;7.32;;;6.07;;
19675;SDS011;39539;52.202;9.876;2023-02-28T06:02:10;9.82;;;6.45;;
19675;SDS011;39539;52.202;9.876;2023-02-28T06:04:37;6.30;;;5.70;;
19675;SDS011;39539;52.202;9.876;2023-02-28T06:07:04;6.75;;;5.97;;
19675;SDS011;39539;52.202;9.876;2023-02-28T06:09:30;6.90;;;6.18;;
19675;SDS011;39539;52.202;9.876;2023-02-28T06:11:59;6.63;;;6.03;;
19675;SDS011;39539;52.202;9.876;2023-02-28T06:14:27;8.77;;;6.38;;
19675;SDS011;39539;52.202;9.876;2023-02-28T06:16:54;6.68;;;6.07;;
19675;SDS011;39539;52.202;9.876;2023-02-28T06:19:19;6.65;;;5.97;;
19675;SDS011;39539;52.202;9.876;2023-02-28T06:21:49;8.32;;;6.55;;
19675;SDS011;39539;52.202;9.876;2023-02-28T06:24:17;7.38;;;6.65;;
19675;SDS011;39539;52.202;9.876;2023-02-28T06:26:42;7.85;;;6.97;;
19675;SDS011;39539;52.202;9.876;2023-02-28T06:29:08;9.48;;;7.07;;
19675;SDS011;39539;52.202;9.876;2023-02-28T06:31:35;7.85;;;7.07;;
19675;SDS011;39539;52.202;9.876;2023-02-28T06:34:01;8.00;;;7.20;;
19675;SDS011;39539;52.202;9.876;2023-02-28T06:36:27;7.05;;;6.18;;
19675;SDS011;39539;52.202;9.876;2023-02-28T06:38:52;9.80;;;6.70;;
19675;SDS011;39539;52.202;9.876;2023-02-28T06:41:21;13.93;;;6.78;;
19675;SDS011;39539;52.202;9.876;2023-02-28T06:43:51;7.47;;;6.78;;
19675;SDS011;39539;52.202;9.876;2023-02-28T06:46:17;7.35;;;6.65;;
19675;SDS011;39539;52.202;9.876;2023-02-28T06:48:43;10.93;;;6.43;;
19675;SDS011;39539;52.202;9.876;2023-02-28T06:51:14;7.18;;;6.47;;
19675;SDS011;39539;52.202;9.876;2023-02-28T06:53:42;7.70;;;6.82;;
19675;SDS011;39539;52.202;9.876;2023-02-28T06:56:08;7.70;;;6.95;;
19675;SDS011;39539;52.202;9.876;2023-02-28T06:58:36;7.38;;;6.68;;
19675;SDS011;39539;52.202;9.876;2023-02-28T07:01:04;8.18;;;7.30;;
19675;SDS011;39539;52.202;9.876;2023-02-28T07:03:29;7.88;;;7.13;;
19675;SDS011;39539;52.202;9.876;2023-02-28T07:05:56;8.65;;;7.75;;
19675;SDS011;39539;52.202;9.876;2023-02-28T07:08:22;8.40;;;6.88;;
19675;SDS011;39539;52.202;9.876;2023-02-28T07:10:51;6.50;;;5.90;;
19675;SDS011;39539;52.202;9.876;2023-02-28T07:13:20;8.45;;;7.55;;
19675;SDS011;39539;52.202;9.876;2023-02-28T07:16:20;9.98;;;6.80;;
19675;SDS011;39539;52.202;9.876;2023-02-28T07:18:38;7.28;;;6.57;;
19675;SDS011;39539;52.202;9.876;2023-02-28T07:21:05;7.68;;;6.88;;
19675;SDS011;39539;52.202;9.876;2023-02-28T07:23:33;11.32;;;7.97;;
19675;SDS011;39539;52.202;9.876;2023-02-28T07:25:59;9.40;;;5.50;;
19675;SDS011;39539;52.202;9.876;2023-02-28T07:28:25;11.52;;;5.10;;
19675;SDS011;39539;52.202;9.876;2023-02-28T07:30:50;5.43;;;4.93;;
19675;SDS011;39539;52.202;9.876;2023-02-28T07:33:17;6.15;;;5.65;;
19675;SDS011;39539;52.202;9.876;2023-02-28T07:35:43;6.68;;;6.07;;
19675;SDS011;39539;52.202;9.876;2023-02-28T07:38:09;5.43;;;4.97;;
19675;SDS011;39539;52.202;9.876;2023-02-28T07:40:35;5.80;;;5.30;;
19675;SDS011;39539;52.202;9.876;2023-02-28T07:43:01;5.80;;;5.40;;
19675;SDS011;39539;52.202;9.876;2023-02-28T07:45:27;6.00;;;5.50;;
19675;SDS011;39539;52.202;9.876;2023-02-28T07:47:53;6.00;;;5.50;;
19675;SDS011;39539;52.202;9.876;2023-02-28T07:50:19;6.28;;;5.68;;
19675;SDS011;39539;52.202;9.876;2023-02-28T07:52:45;20.17;;;6.85;;
19675;SDS011;39539;52.202;9.876;2023-02-28T07:55:10;8.77;;;5.70;;
19675;SDS011;39539;52.202;9.876;2023-02-28T07:57:36;5.93;;;5.35;;
19675;SDS011;39539;52.202;9.876;2023-02-28T08:00:05;5.32;;;4.93;;
19675;SDS011;39539;52.202;9.876;2023-02-28T08:02:34;7.28;;;5.07;;
19675;SDS011;39539;52.202;9.876;2023-02-28T08:05:00;5.65;;;5.15;;
19675;SDS011;39539;52.202;9.876;2023-02-28T08:07:26;5.82;;;5.32;;
19675;SDS011;39539;52.202;9.876;2023-02-28T08:09:52;4.85;;;4.45;;
19675;SDS011;39539;52.202;9.876;2023-02-28T08:12:17;5.63;;;5.13;;
19675;SDS011;39539;52.202;9.876;2023-02-28T08:14:43;5.28;;;4.80;;
19675;SDS011;39539;52.202;9.876;2023-02-28T08:17:09;5.50;;;5.00;;
19675;SDS011;39539;52.202;9.876;2023-02-28T08:19:35;6.75;;;4.90;;
19675;SDS011;39539;52.202;9.876;2023-02-28T08:22:00;5.35;;;4.85;;
19675;SDS011;39539;52.202;9.876;2023-02-28T08:24:26;5.82;;;5.22;;
19675;SDS011;39539;52.202;9.876;2023-02-28T08:26:51;5.63;;;5.20;;
19675;SDS011;39539;52.202;9.876;2023-02-28T08:29:17;7.38;;;4.90;;
19675;SDS011;39539;52.202;9.876;2023-02-28T08:31:42;67.55;;;11.07;;
19675;SDS011;39539;52.202;9.876;2023-02-28T08:34:08;6.38;;;4.75;;
19675;SDS011;39539;52.202;9.876;2023-02-28T08:36:36;7.88;;;4.93;;
19675;SDS011;39539;52.202;9.876;2023-02-28T08:39:03;5.38;;;4.88;;
19675;SDS011;39539;52.202;9.876;2023-02-28T08:41:28;4.75;;;3.83;;
19675;SDS011;39539;52.202;9.876;2023-02-28T08:43:54;4.80;;;4.30;;
19675;SDS011;39539;52.202;9.876;2023-02-28T08:46:20;5.40;;;3.85;;
19675;SDS011;39539;52.202;9.876;2023-02-28T08:48:45;5.32;;;4.82;;
19675;SDS011;39539;52.202;9.876;2023-02-28T08:51:15;5.10;;;4.70;;
19675;SDS011;39539;52.202;9.876;2023-02-28T08:53:47;5.55;;;5.07;;
19675;SDS011;39539;52.202;9.876;2023-02-28T08:56:16;4.80;;;4.30;;
19675;SDS011;39539;52.202;9.876;2023-02-28T08:58:44;4.97;;;4.57;;
19675;SDS011;39539;52.202;9.876;2023-02-28T09:01:16;4.47;;;4.15;;
19675;SDS011;39539;52.202;9.876;2023-02-28T09:03:44;4.75;;;4.22;;
19675;SDS011;39539;52.202;9.876;2023-02-28T09:06:12;4.47;;;4.07;;
19675;SDS011;39539;52.202;9.876;2023-02-28T09:08:37;4.95;;;4.43;;
19675;SDS011;39539;52.202;9.876;2023-02-28T09:11:04;4.32;;;4.00;;
19675;SDS011;39539;52.202;9.876;2023-02-28T09:13:30;24.45;;;6.20;;
19675;SDS011;39539;52.202;9.876;2023-02-28T09:15:59;3.90;;;3.60;;
19675;SDS011;39539;52.202;9.876;2023-02-28T09:18:26;4.55;;;3.95;;
19675;SDS011;39539;52.202;9.876;2023-02-28T09:20:51;4.18;;;3.78;;
19675;SDS011;39539;52.202;9.876;2023-02-28T09:23:17;4.47;;;3.88;;
19675;SDS011;39539;52.202;9.876;2023-02-28T09:25:50;4.60;;;4.15;;
19675;SDS011;39539;52.202;9.876;2023-02-28T09:28:17;4.80;;;4.30;;
19675;SDS011;39539;52.202;9.876;2023-02-28T09:30:47;4.53;;;3.60;;
19675;SDS011;39539;52.202;9.876;2023-02-28T09:33:15;4.45;;;3.80;;
19675;SDS011;39539;52.202;9.876;2023-02-28T09:35:41;3.53;;;3.22;;
19675;SDS011;39539;52.202;9.876;2023-02-28T09:38:08;3.35;;;3.10;;
19675;SDS011;39539;52.202;9.876;2023-02-28T09:40:39;3.10;;;2.90;;
19675;SDS011;39539;52.202;9.876;2023-02-28T09:43:16;2.60;;;2.40;;
19675;SDS011;39539;52.202;9.876;2023-02-28T09:45:46;2.90;;;2.70;;
19675;SDS011;39539;52.202;9.876;2023-02-28T09:48:19;4.07;;;3.05;;
19675;SDS011;39539;52.202;9.876;2023-02-28T09:50:49;3.63;;;2.60;;
19675;SDS011;39539;52.202;9.876;2023-02-28T09:53:28;5.75;;;2.85;;
19675;SDS011;39539;52.202;9.876;2023-02-28T09:58:40;3.58;;;3.28;;
19675;SDS011;39539;52.202;9.876;2023-02-28T10:01:19;3.25;;;3.03;;
19675;SDS011;39539;52.202;9.876;2023-02-28T10:03:55;3.42;;;3.08;;
19675;SDS011;39539;52.202;9.876;2023-02-28T10:06:31;3.72;;;3.42;;
19675;SDS011;39539;52.202;9.876;2023-02-28T10:09:07;3.53;;;3.22;;
19675;SDS011;39539;52.202;9.876;2023-02-28T10:11:39;3.75;;;3.22;;
19675;SDS011;39539;52.202;9.876;2023-02-28T10:16:45;3.63;;;2.95;;
19675;SDS011;39539;52.202;9.876;2023-02-28T10:22:05;3.67;;;3.00;;
19675;SDS011;39539;52.202;9.876;2023-02-28T10:24:47;3.33;;;3.03;;
19675;SDS011;39539;52.202;9.876;2023-02-28T10:29:47;4.15;;;3.75;;
19675;SDS011;39539;52.202;9.876;2023-02-28T10:32:15;5.78;;;3.65;;
19675;SDS011;39539;52.202;9.876;2023-02-28T10:34:43;3.60;;;3.30;;
19675;SDS011;39539;52.202;9.876;2023-02-28T10:37:10;4.20;;;3.33;;
19675;SDS011;39539;52.202;9.876;2023-02-28T10:39:39;4.22;;;3.78;;
19675;SDS011;39539;52.202;9.876;2023-02-28T10:42:26;3.45;;;3.25;;
19675;SDS011;39539;52.202;9.876;2023-02-28T10:47:35;4.72;;;3.10;;
19675;SDS011;39539;52.202;9.876;2023-02-28T10:50:25;4.38;;;3.30;;
19675;SDS011;39539;52.202;9.876;2023-02-28T10:55:37;3.45;;;3.15;;
19675;SDS011;39539;52.202;9.876;2023-02-28T10:58:12;3.42;;;3.03;;
19675;SDS011;39539;52.202;9.876;2023-02-28T11:00:46;4.85;;;3.17;;
19675;SDS011;39539;52.202;9.876;2023-02-28T11:05:50;5.43;;;3.75;;
19675;SDS011;39539;52.202;9.876;2023-02-28T11:08:16;3.67;;;3.38;;
19675;SDS011;39539;52.202;9.876;2023-02-28T11:10:47;3.13;;;2.90;;
19675;SDS011;39539;52.202;9.876;2023-02-28T11:13:25;3.47;;;3.17;;
19675;SDS011;39539;52.202;9.876;2023-02-28T11:15:55;3.20;;;2.75;;
19675;SDS011;39539;52.202;9.876;2023-02-28T11:21:07;3.75;;;3.45;;
19675;SDS011;39539;52.202;9.876;2023-02-28T11:23:35;3.78;;;3.28;;
19675;SDS011;39539;52.202;9.876;2023-02-28T11:26:02;3.40;;;3.10;;
19675;SDS011;39539;52.202;9.876;2023-02-28T11:28:36;3.30;;;3.00;;
19675;SDS011;39539;52.202;9.876;2023-02-28T11:38:51;4.13;;;3.00;;
19675;SDS011;39539;52.202;9.876;2023-02-28T11:43:55;3.80;;;3.22;;
19675;SDS011;39539;52.202;9.876;2023-02-28T11:46:52;3.85;;;3.55;;
19675;SDS011;39539;52.202;9.876;2023-02-28T11:49:37;12.32;;;4.03;;
19675;SDS011;39539;52.202;9.876;2023-02-28T11:52:20;5.05;;;2.88;;
19675;SDS011;39539;52.202;9.876;2023-02-28T12:03:06;3.40;;;3.10;;
19675;SDS011;39539;52.202;9.876;2023-02-28T12:05:42;3.10;;;2.70;;
19675;SDS011;39539;52.202;9.876;2023-02-28T12:10:52;4.20;;;3.15;;
19675;SDS011;39539;52.202;9.876;2023-02-28T12:13:56;4.30;;;2.92;;
19675;SDS011;39539;52.202;9.876;2023-02-28T12:18:57;2.92;;;2.33;;
19675;SDS011;39539;52.202;9.876;2023-02-28T12:27:13;3.30;;;2.28;;
19675;SDS011;39539;52.202;9.876;2023-02-28T12:29:54;2.92;;;2.72;;
19675;SDS011;39539;52.202;9.876;2023-02-28T12:32:23;3.72;;;2.60;;
19675;SDS011;39539;52.202;9.876;2023-02-28T12:34:56;2.50;;;2.30;;
19675;SDS011;39539;52.202;9.876;2023-02-28T12:37:32;3.13;;;2.65;;
19675;SDS011;39539;52.202;9.876;2023-02-28T12:40:03;2.90;;;2.60;;
19675;SDS011;39539;52.202;9.876;2023-02-28T12:42:42;2.40;;;2.20;;
19675;SDS011;39539;52.202;9.876;2023-02-28T12:45:25;3.47;;;2.90;;
19675;SDS011;39539;52.202;9.876;2023-02-28T12:47:58;4.05;;;2.88;;
19675;SDS011;39539;52.202;9.876;2023-02-28T12:50:29;2.65;;;2.45;;
19675;SDS011;39539;52.202;9.876;2023-02-28T13:06:42;3.30;;;2.58;;
19675;SDS011;39539;52.202;9.876;2023-02-28T13:09:27;3.85;;;2.70;;
19675;SDS011;39539;52.202;9.876;2023-02-28T13:11:55;2.38;;;2.17;;
19675;SDS011;39539;52.202;9.876;2023-02-28T13:19:45;2.58;;;2.38;;
19675;SDS011;39539;52.202;9.876;2023-02-28T13:24:51;2.50;;;2.30;;
19675;SDS011;39539;52.202;9.876;2023-02-28T13:27:24;2.72;;;2.40;;
19675;SDS011;39539;52.202;9.876;2023-02-28T13:29:57;2.60;;;2.40;;
19675;SDS011;39539;52.202;9.876;2023-02-28T13:32:31;4.20;;;2.70;;
19675;SDS011;39539;52.202;9.876;2023-02-28T13:39:53;2.53;;;2.28;;
19675;SDS011;39539;52.202;9.876;2023-02-28T13:59:18;2.78;;;2.58;;
19675;SDS011;39539;52.202;9.876;2023-02-28T14:07:19;2.90;;;2.58;;
19675;SDS011;39539;52.202;9.876;2023-02-28T14:10:04;3.00;;;2.55;;
19675;SDS011;39539;52.202;9.876;2023-02-28T14:12:53;2.42;;;2.22;;
19675;SDS011;39539;52.202;9.876;2023-02-28T14:15:36;2.88;;;2.58;;
19675;SDS011;39539;52.202;9.876;2023-02-28T14:18:04;2.60;;;2.35;;
19675;SDS011;39539;52.202;9.876;2023-02-28T14:20:39;3.03;;;2.83;;
19675;SDS011;39539;52.202;9.876;2023-02-28T14:23:12;8.50;;;2.75;;
19675;SDS011;39539;52.202;9.876;2023-02-28T14:31:43;4.13;;;2.67;;
19675;SDS011;39539;52.202;9.876;2023-02-28T14:37:33;4.68;;;2.80;;
19675;SDS011;39539;52.202;9.876;2023-02-28T14:40:02;2.90;;;2.70;;
19675;SDS011;39539;52.202;9.876;2023-02-28T14:42:31;3.20;;;2.90;;
19675;SDS011;39539;52.202;9.876;2023-02-28T14:44:58;2.80;;;2.60;;
19675;SDS011;39539;52.202;9.876;2023-02-28T14:47:25;2.90;;;2.70;;
19675;SDS011;39539;52.202;9.876;2023-02-28T14:49:57;3.10;;;2.90;;
19675;SDS011;39539;52.202;9.876;2023-02-28T14:52:28;2.47;;;2.28;;
19675;SDS011;39539;52.202;9.876;2023-02-28T14:55:04;2.90;;;2.70;;
19675;SDS011;39539;52.202;9.876;2023-02-28T14:57:39;2.80;;;2.60;;
19675;SDS011;39539;52.202;9.876;2023-02-28T15:00:13;2.80;;;2.60;;
19675;SDS011;39539;52.202;9.876;2023-02-28T15:02:51;3.83;;;2.78;;
19675;SDS011;39539;52.202;9.876;2023-02-28T15:08:13;3.92;;;2.85;;
19675;SDS011;39539;52.202;9.876;2023-02-28T15:10:40;3.13;;;2.85;;
19675;SDS011;39539;52.202;9.876;2023-02-28T15:13:12;3.95;;;2.83;;
19675;SDS011;39539;52.202;9.876;2023-02-28T15:21:07;2.80;;;2.58;;
19675;SDS011;39539;52.202;9.876;2023-02-28T15:23:37;3.03;;;2.83;;
19675;SDS011;39539;52.202;9.876;2023-02-28T15:26:09;3.03;;;2.83;;
19675;SDS011;39539;52.202;9.876;2023-02-28T15:28:42;2.58;;;2.38;;
19675;SDS011;39539;52.202;9.876;2023-02-28T15:31:22;3.63;;;2.83;;
19675;SDS011;39539;52.202;9.876;2023-02-28T15:33:57;3.40;;;3.10;;
19675;SDS011;39539;52.202;9.876;2023-02-28T15:36:32;2.95;;;2.53;;
19675;SDS011;39539;52.202;9.876;2023-02-28T15:39:02;3.25;;;2.95;;
19675;SDS011;39539;52.202;9.876;2023-02-28T15:41:44;3.25;;;2.95;;
19675;SDS011;39539;52.202;9.876;2023-02-28T15:44:13;3.10;;;2.70;;
19675;SDS011;39539;52.202;9.876;2023-02-28T15:46:44;3.15;;;2.92;;
19675;SDS011;39539;52.202;9.876;2023-02-28T15:49:20;3.55;;;3.25;;
19675;SDS011;39539;52.202;9.876;2023-02-28T15:51:48;3.95;;;3.22;;
19675;SDS011;39539;52.202;9.876;2023-02-28T15:54:21;3.83;;;3.53;;
19675;SDS011;39539;52.202;9.876;2023-02-28T15:56:52;4.78;;;3.50;;
19675;SDS011;39539;52.202;9.876;2023-02-28T15:59:27;3.33;;;2.92;;
19675;SDS011;39539;52.202;9.876;2023-02-28T16:04:35;3.40;;;3.10;;
19675;SDS011;39539;52.202;9.876;2023-02-28T16:07:02;3.78;;;3.42;;
19675;SDS011;39539;52.202;9.876;2023-02-28T16:09:29;17.35;;;4.65;;
19675;SDS011;39539;52.202;9.876;2023-02-28T16:11:58;3.28;;;3.08;;
19675;SDS011;39539;52.202;9.876;2023-02-28T16:14:27;3.13;;;2.85;;
19675;SDS011;39539;52.202;9.876;2023-02-28T16:16:56;3.83;;;3.42;;
19675;SDS011;39539;52.202;9.876;2023-02-28T16:19:28;4.32;;;3.13;;
19675;SDS011;39539;52.202;9.876;2023-02-28T16:21:54;3.20;;;2.90;;
19675;SDS011;39539;52.202;9.876;2023-02-28T16:24:20;4.03;;;3.42;;
19675;SDS011;39539;52.202;9.876;2023-02-28T16:26:47;3.38;;;3.10;;
19675;SDS011;39539;52.202;9.876;2023-02-28T16:29:20;3.70;;;3.30;;
19675;SDS011;39539;52.202;9.876;2023-02-28T16:31:54;3.78;;;3.47;;
19675;SDS011;39539;52.202;9.876;2023-02-28T16:34:21;3.70;;;3.40;;
19675;SDS011;39539;52.202;9.876;2023-02-28T16:36:47;3.67;;;3.38;;
19675;SDS011;39539;52.202;9.876;2023-02-28T16:39:14;3.53;;;3.22;;
19675;SDS011;39539;52.202;9.876;2023-02-28T16:41:41;3.33;;;3.03;;
19675;SDS011;39539;52.202;9.876;2023-02-28T16:44:10;3.45;;;3.15;;
19675;SDS011;39539;52.202;9.876;2023-02-28T16:46:44;4.10;;;3.53;;
19675;SDS011;39539;52.202;9.876;2023-02-28T16:49:12;3.70;;;3.40;;
19675;SDS011;39539;52.202;9.876;2023-02-28T16:51:39;3.60;;;3.30;;
19675;SDS011;39539;52.202;9.876;2023-02-28T16:54:05;3.28;;;2.97;;
19675;SDS011;39539;52.202;9.876;2023-02-28T16:56:31;4.43;;;3.30;;
19675;SDS011;39539;52.202;9.876;2023-02-28T16:58:59;3.70;;;3.40;;
19675;SDS011;39539;52.202;9.876;2023-02-28T17:01:26;3.83;;;3.53;;
19675;SDS011;39539;52.202;9.876;2023-02-28T17:03:52;4.53;;;3.80;;
19675;SDS011;39539;52.202;9.876;2023-02-28T17:06:22;8.57;;;4.03;;
19675;SDS011;39539;52.202;9.876;2023-02-28T17:08:55;6.43;;;3.88;;
19675;SDS011;39539;52.202;9.876;2023-02-28T17:11:21;4.10;;;3.70;;
19675;SDS011;39539;52.202;9.876;2023-02-28T17:13:47;4.70;;;4.10;;
19675;SDS011;39539;52.202;9.876;2023-02-28T17:16:23;4.53;;;4.13;;
19675;SDS011;39539;52.202;9.876;2023-02-28T17:18:53;4.40;;;4.00;;
19675;SDS011;39539;52.202;9.876;2023-02-28T17:21:19;7.97;;;7.18;;
19675;SDS011;39539;52.202;9.876;2023-02-28T17:23:45;4.90;;;4.50;;
19675;SDS011;39539;52.202;9.876;2023-02-28T17:26:14;4.82;;;4.43;;
19675;SDS011;39539;52.202;9.876;2023-02-28T17:28:42;8.18;;;5.25;;
19675;SDS011;39539;52.202;9.876;2023-02-28T17:31:08;6.35;;;5.70;;
19675;SDS011;39539;52.202;9.876;2023-02-28T17:33:34;5.32;;;4.72;;